Forside
METAR-TAF:

METAR-TAF

Lufthavne :

Mitiga International Airport

Tripoli, Libyen

Breddekreds: 32-54N, længdekreds: 13-17E, højde: 11 m

Aktuelle vejr

Denne rapport blev lavet for 57 minutter siden, kl. 01:50 UTC
Vind 6 kt fra sydøst
Temperatur 26°C
Fugtighed 79%
Tryk 1014 hPa
Sigt: 7000 m
Nogle få skyer i en højde af 2500 ft

METAR: HLLM 160150Z 13006KT 7000 FEW025 26/22 Q1014

Tid: 04:47 (02:47 UTC)

Vejrudsigter

Denne rapport blev lavet for 15 timer og 47 minutter siden, kl. 11:00 UTC
Foreløbig gælder fra 14 på 12 UTC til 15 på 12 UTC
Vind 12 kt fra nordnordvest
Sigt 10 km eller mere
Spredte skyer i en højde af 3000 ft
Spredte skyer i en højde af 8000 ft
ændring
fra 14 på 20 UTC til 14 på 22 UTC
Vind 2 kt fra varierende retninger

TAF: HLLM 141100Z 1412/1512 34012KT 9999 SCT030 SCT080 BECMG 1420/1422 VRB02KT

Vejrobservationer og prognoser fra mere end 4000 lufthavne (METAR og TAF).

De gule og røde prikker repræsenterer de meteorologiske stationer.

Flyt musen over at se navnet på stationen.

Så klik over at se vejr observationer og prognoser.

At skifte det kort: Klik på de grønne knapper med et sort kors for at zoome ind; på den grønne knap med en bindestreg for at zoome ud; eller på de grønne pile for tilstødende kort.


METAR-TAF: